createdAt,value
2023-04-15T00:01:19.935Z,6.50
2023-04-15T00:03:52.693Z,6.60
2023-04-15T00:06:21.628Z,6.70
2023-04-15T00:08:50.781Z,6.90
2023-04-15T00:11:20.343Z,6.80
2023-04-15T00:13:52.084Z,6.80
2023-04-15T00:16:20.761Z,6.60
2023-04-15T00:18:51.215Z,6.40
2023-04-15T00:21:20.173Z,6.60
2023-04-15T00:23:52.695Z,6.70
2023-04-15T00:26:21.510Z,6.80
2023-04-15T00:28:51.900Z,6.60
2023-04-15T00:31:21.229Z,6.60
2023-04-15T00:33:51.931Z,6.30
2023-04-15T00:36:20.476Z,6.30
2023-04-15T00:38:49.507Z,6.30
2023-04-15T00:41:19.408Z,6.20
2023-04-15T00:43:48.409Z,6.10
2023-04-15T00:46:20.816Z,6.00
2023-04-15T00:48:52.898Z,6.00
2023-04-15T00:51:21.996Z,5.90
2023-04-15T00:53:54.559Z,5.80
2023-04-15T00:56:24.897Z,5.80
2023-04-15T00:58:53.904Z,5.70
2023-04-15T01:01:23.702Z,5.60
2023-04-15T01:03:54.425Z,5.60
2023-04-15T01:06:23.062Z,5.60
2023-04-15T01:08:52.177Z,5.50
2023-04-15T01:11:21.139Z,5.40
2023-04-15T01:13:50.457Z,5.30
2023-04-15T01:16:20.498Z,5.30
2023-04-15T01:18:49.190Z,5.30
2023-04-15T01:21:20.085Z,5.10
2023-04-15T01:23:50.026Z,5.10
2023-04-15T01:26:20.645Z,5.30
2023-04-15T01:28:49.255Z,5.40
2023-04-15T01:31:18.534Z,5.70
2023-04-15T01:33:48.236Z,5.80
2023-04-15T01:36:17.065Z,5.70
2023-04-15T01:38:45.852Z,5.50
2023-04-15T01:41:16.496Z,5.30
2023-04-15T01:43:48.382Z,5.30
2023-04-15T01:46:17.382Z,5.10
2023-04-15T01:48:46.374Z,5.00
2023-04-15T01:51:15.654Z,4.90
2023-04-15T01:53:44.527Z,4.70
2023-04-15T01:56:14.755Z,4.60
2023-04-15T01:58:47.312Z,4.50
2023-04-15T02:01:17.135Z,4.40
2023-04-15T02:03:46.162Z,4.40
2023-04-15T02:06:14.867Z,4.50
2023-04-15T02:08:43.617Z,4.60
2023-04-15T02:11:12.545Z,5.00
2023-04-15T02:13:41.912Z,4.90
2023-04-15T02:16:19.618Z,4.90
2023-04-15T02:18:48.606Z,5.20
2023-04-15T02:21:19.133Z,5.60
2023-04-15T02:23:48.531Z,5.70
2023-04-15T02:26:17.211Z,5.70
2023-04-15T02:28:45.874Z,5.80
2023-04-15T02:31:18.538Z,5.80
2023-04-15T02:33:47.236Z,5.90
2023-04-15T02:36:16.292Z,6.20
2023-04-15T02:38:46.127Z,6.30
2023-04-15T02:41:16.669Z,6.10
2023-04-15T02:43:47.283Z,6.00
2023-04-15T02:46:18.010Z,6.00
2023-04-15T02:48:46.936Z,6.00
2023-04-15T02:51:16.885Z,5.90
2023-04-15T02:53:45.816Z,5.70
2023-04-15T02:56:15.408Z,5.70
2023-04-15T02:58:44.857Z,5.60
2023-04-15T03:01:13.872Z,5.40
2023-04-15T03:03:45.429Z,5.20
2023-04-15T03:06:14.244Z,5.10
2023-04-15T03:08:43.280Z,5.00
2023-04-15T03:11:14.380Z,5.30
2023-04-15T03:13:43.471Z,5.60
2023-04-15T03:16:23.033Z,5.70
2023-04-15T03:18:53.233Z,5.50
2023-04-15T03:21:24.120Z,5.60
2023-04-15T03:23:52.909Z,5.70
2023-04-15T03:26:29.684Z,5.70
2023-04-15T03:29:02.552Z,5.90
2023-04-15T03:31:31.763Z,6.00
2023-04-15T03:34:02.368Z,5.90
2023-04-15T03:36:33.506Z,5.90
2023-04-15T03:39:04.394Z,6.10
2023-04-15T03:41:33.817Z,6.20
2023-04-15T03:44:02.286Z,6.20
2023-04-15T03:46:31.351Z,6.30
2023-04-15T03:49:02.115Z,6.30
2023-04-15T03:51:31.540Z,6.30
2023-04-15T03:54:00.209Z,6.40
2023-04-15T03:56:28.993Z,6.40
2023-04-15T03:58:57.890Z,6.20
2023-04-15T04:01:26.661Z,6.20
2023-04-15T04:03:55.456Z,6.30
2023-04-15T04:06:26.623Z,6.10
2023-04-15T04:08:55.208Z,6.00
2023-04-15T04:11:23.779Z,6.10
2023-04-15T04:13:52.351Z,6.20
2023-04-15T04:16:21.169Z,6.30
2023-04-15T04:18:49.885Z,6.30
2023-04-15T04:21:18.705Z,6.30
2023-04-15T04:23:49.086Z,6.20
2023-04-15T04:26:17.837Z,6.20
2023-04-15T04:28:46.754Z,6.10
2023-04-15T04:31:15.628Z,6.00
2023-04-15T04:33:44.446Z,6.10
2023-04-15T04:36:13.138Z,6.20
2023-04-15T04:38:42.151Z,6.20
2023-04-15T04:41:12.790Z,6.10
2023-04-15T04:43:41.498Z,6.10
2023-04-15T04:46:10.742Z,6.30
2023-04-15T04:48:39.804Z,6.30
2023-04-15T04:51:09.753Z,6.40
2023-04-15T04:53:38.707Z,6.40
2023-04-15T04:56:07.500Z,6.50
2023-04-15T04:58:38.532Z,6.50
2023-04-15T05:01:07.306Z,6.60
2023-04-15T05:03:36.186Z,6.60
2023-04-15T05:06:06.692Z,6.70
2023-04-15T05:08:35.652Z,6.70
2023-04-15T05:11:04.501Z,6.60
2023-04-15T05:13:33.326Z,6.50
2023-04-15T05:16:03.739Z,6.50
2023-04-15T05:18:32.831Z,6.50
2023-04-15T05:21:01.768Z,6.40
2023-04-15T05:23:31.047Z,6.40
2023-04-15T05:25:59.874Z,6.50
2023-04-15T05:28:28.954Z,6.60
2023-04-15T05:30:57.779Z,6.60
2023-04-15T05:33:28.368Z,6.60
2023-04-15T05:35:57.070Z,6.60
2023-04-15T05:38:26.315Z,6.60
2023-04-15T05:40:55.268Z,6.60
2023-04-15T05:43:24.255Z,6.60
2023-04-15T05:45:52.906Z,6.70
2023-04-15T05:48:21.767Z,6.80
2023-04-15T05:50:51.981Z,6.90
2023-04-15T05:53:20.896Z,7.10
2023-04-15T05:55:49.581Z,7.10
2023-04-15T05:58:18.188Z,7.20
2023-04-15T06:00:46.717Z,7.30
2023-04-15T06:03:15.836Z,7.50
2023-04-15T06:05:45.439Z,7.60
2023-04-15T06:08:15.861Z,7.70
2023-04-15T06:10:44.747Z,7.70
2023-04-15T06:13:15.216Z,7.80
2023-04-15T06:15:44.140Z,7.90
2023-04-15T06:18:13.286Z,8.00
2023-04-15T06:20:42.616Z,8.20
2023-04-15T06:23:11.496Z,8.20
2023-04-15T06:25:41.819Z,8.50
2023-04-15T06:28:10.724Z,8.60
2023-04-15T06:30:40.176Z,8.70
2023-04-15T06:33:09.886Z,8.70
2023-04-15T06:35:39.300Z,8.80
2023-04-15T06:38:08.114Z,9.10
2023-04-15T06:40:37.316Z,9.20
2023-04-15T06:43:08.144Z,9.40
2023-04-15T06:45:36.896Z,9.60
2023-04-15T06:48:07.106Z,9.60
2023-04-15T06:50:36.168Z,9.80
2023-04-15T06:53:04.818Z,9.90
2023-04-15T06:55:34.152Z,10.10
2023-04-15T06:58:03.174Z,10.30
2023-04-15T07:00:33.993Z,10.60
2023-04-15T07:03:03.997Z,10.80
2023-04-15T07:05:33.987Z,11.10
2023-04-15T07:08:04.486Z,11.30
2023-04-15T07:10:33.700Z,11.40
2023-04-15T07:13:02.293Z,11.50
2023-04-15T07:15:32.584Z,11.60
2023-04-15T07:18:01.517Z,11.80
2023-04-15T07:20:30.194Z,11.70
2023-04-15T07:22:59.260Z,11.60
2023-04-15T07:25:28.093Z,11.70
2023-04-15T07:27:57.156Z,11.70
2023-04-15T07:30:25.627Z,11.70
2023-04-15T07:32:56.253Z,11.60
2023-04-15T07:35:25.814Z,11.50
2023-04-15T07:37:54.216Z,11.80
2023-04-15T07:40:22.635Z,12.00
2023-04-15T07:42:51.583Z,12.20
2023-04-15T07:45:20.191Z,12.20
2023-04-15T07:47:48.875Z,12.10
2023-04-15T07:50:20.012Z,12.10
2023-04-15T07:52:50.197Z,12.20
2023-04-15T07:55:21.491Z,12.10
2023-04-15T07:57:50.451Z,12.10
2023-04-15T08:00:19.409Z,11.90
2023-04-15T08:02:48.616Z,11.90
2023-04-15T08:05:19.234Z,11.80
2023-04-15T08:07:47.968Z,11.80
2023-04-15T08:10:19.806Z,11.90
2023-04-15T08:12:49.722Z,12.10
2023-04-15T08:15:18.660Z,12.20
2023-04-15T08:17:47.357Z,12.50
2023-04-15T08:20:16.093Z,12.50
2023-04-15T08:22:47.933Z,12.40
2023-04-15T08:25:16.866Z,12.60
2023-04-15T08:27:45.870Z,12.80
2023-04-15T08:30:14.924Z,13.00
2023-04-15T08:32:44.114Z,13.20
2023-04-15T08:35:12.826Z,13.40
2023-04-15T08:37:41.717Z,13.20
2023-04-15T08:40:13.887Z,13.30
2023-04-15T08:42:46.481Z,13.30
2023-04-15T08:45:15.292Z,13.20
2023-04-15T08:47:47.248Z,13.10
2023-04-15T08:50:17.231Z,13.20
2023-04-15T08:52:46.272Z,12.90
2023-04-15T08:55:18.096Z,12.90
2023-04-15T08:57:47.504Z,12.80
2023-04-15T09:00:17.462Z,12.90
2023-04-15T09:02:46.955Z,13.10
2023-04-15T09:05:16.627Z,13.40
2023-04-15T09:07:45.606Z,13.10
2023-04-15T09:10:16.255Z,12.80
2023-04-15T09:12:45.199Z,13.10
2023-04-15T09:15:14.504Z,13.30
2023-04-15T09:17:45.948Z,13.20
2023-04-15T09:20:16.983Z,13.30
2023-04-15T09:22:49.302Z,13.60
2023-04-15T09:25:34.788Z,13.70
2023-04-15T09:28:05.544Z,14.00
2023-04-15T09:30:34.910Z,13.90
2023-04-15T09:33:08.779Z,14.10
2023-04-15T09:35:38.187Z,14.40
2023-04-15T09:38:08.356Z,14.40
2023-04-15T09:40:40.470Z,14.70
2023-04-15T09:43:10.997Z,14.40
2023-04-15T09:45:39.995Z,14.30
2023-04-15T09:48:21.022Z,14.40
2023-04-15T09:50:50.852Z,14.60
2023-04-15T09:53:20.572Z,14.30
2023-04-15T09:55:54.726Z,13.70
2023-04-15T09:58:24.814Z,13.60
2023-04-15T10:00:54.875Z,13.60
2023-04-15T10:03:26.132Z,14.00
2023-04-15T10:05:56.517Z,14.70
2023-04-15T10:08:27.630Z,15.40
2023-04-15T10:10:59.150Z,15.50
2023-04-15T10:13:29.719Z,15.90
2023-04-15T10:16:00.497Z,15.80
2023-04-15T10:18:30.436Z,15.80
2023-04-15T10:20:59.679Z,16.50
2023-04-15T10:23:29.307Z,17.20
2023-04-15T10:26:00.165Z,16.10
2023-04-15T10:28:29.429Z,15.50
2023-04-15T10:30:59.443Z,14.90
2023-04-15T10:33:29.570Z,14.40
2023-04-15T10:35:58.370Z,14.10
2023-04-15T10:38:38.059Z,14.20
2023-04-15T10:41:21.121Z,14.40
2023-04-15T10:43:53.164Z,14.80
2023-04-15T10:46:25.852Z,14.80
2023-04-15T10:48:55.262Z,14.70
2023-04-15T10:51:33.092Z,14.10
2023-04-15T10:54:02.285Z,14.00
2023-04-15T10:56:32.950Z,13.60
2023-04-15T10:59:02.924Z,13.40
2023-04-15T11:01:53.594Z,13.40
2023-04-15T11:04:57.680Z,13.50
2023-04-15T11:07:37.083Z,13.60
2023-04-15T11:10:21.323Z,13.40
2023-04-15T11:12:53.804Z,13.70
2023-04-15T11:15:31.421Z,13.90
2023-04-15T11:18:02.033Z,14.20
2023-04-15T11:20:31.115Z,14.40
2023-04-15T11:23:13.034Z,14.10
2023-04-15T11:25:45.268Z,14.10
2023-04-15T11:28:16.391Z,14.00
2023-04-15T11:30:45.326Z,13.60
2023-04-15T11:33:14.564Z,13.60
2023-04-15T11:35:44.373Z,13.50
2023-04-15T11:38:15.661Z,13.70
2023-04-15T11:40:46.996Z,14.20
2023-04-15T11:43:21.106Z,14.10
2023-04-15T11:45:52.982Z,13.80
2023-04-15T11:48:23.017Z,13.30
2023-04-15T11:50:56.174Z,13.40
2023-04-15T11:53:25.694Z,13.40
2023-04-15T11:55:55.730Z,13.50
2023-04-15T11:58:28.145Z,13.90
2023-04-15T12:00:59.041Z,14.20
2023-04-15T12:03:29.400Z,14.30
2023-04-15T12:06:17.113Z,14.20
2023-04-15T12:09:00.461Z,13.70
2023-04-15T12:11:31.513Z,13.60
2023-04-15T12:14:06.266Z,13.60
2023-04-15T12:16:48.990Z,13.50
2023-04-15T12:19:22.547Z,13.60
2023-04-15T12:21:52.035Z,13.80
2023-04-15T12:24:24.150Z,13.80
2023-04-15T12:26:55.192Z,13.40
2023-04-15T12:29:29.108Z,13.20
2023-04-15T12:31:59.254Z,13.10
2023-04-15T12:34:29.682Z,12.90
2023-04-15T12:37:00.551Z,12.80
2023-04-15T12:39:31.498Z,12.80
2023-04-15T12:42:01.831Z,12.80
2023-04-15T12:44:32.712Z,13.10
2023-04-15T12:47:01.828Z,13.10
2023-04-15T12:49:31.029Z,13.00
2023-04-15T12:52:01.512Z,13.00
2023-04-15T12:54:30.827Z,12.90
2023-04-15T12:57:00.155Z,12.80
2023-04-15T12:59:29.237Z,12.70
2023-04-15T13:02:00.974Z,12.50
2023-04-15T13:04:31.609Z,12.50
2023-04-15T13:07:00.338Z,12.60
2023-04-15T13:09:29.043Z,12.70
2023-04-15T13:11:58.394Z,12.90
2023-04-15T13:14:27.179Z,12.90
2023-04-15T14:24:43.323Z,12.50
2023-04-15T14:27:12.887Z,12.50
2023-04-15T14:29:41.836Z,12.30
2023-04-15T14:32:12.027Z,12.20
2023-04-15T14:34:41.522Z,12.20
2023-04-15T14:38:12.748Z,12.20
2023-04-15T14:44:53.019Z,12.00
2023-04-15T14:48:00.030Z,11.90
2023-04-15T14:53:56.254Z,12.10
2023-04-15T14:56:38.193Z,12.00
2023-04-15T14:59:27.870Z,11.90
2023-04-15T15:02:08.209Z,11.70
2023-04-15T15:04:52.691Z,11.70
2023-04-15T15:07:30.938Z,11.80
2023-04-15T15:10:03.787Z,11.70
2023-04-15T15:12:58.015Z,11.70
2023-04-15T15:15:29.402Z,11.50
2023-04-15T15:18:54.536Z,11.40
2023-04-15T15:21:35.038Z,11.30
2023-04-15T15:24:18.339Z,11.20
2023-04-15T15:27:38.336Z,11.20
2023-04-15T15:33:29.556Z,11.00
2023-04-15T15:36:03.000Z,10.90
2023-04-15T15:38:54.166Z,10.90
2023-04-15T15:41:26.584Z,10.80
2023-04-15T15:44:00.765Z,10.70
2023-04-15T15:46:35.374Z,10.70
2023-04-15T15:49:11.715Z,10.60
2023-04-15T15:51:50.595Z,10.60
2023-04-15T15:54:23.296Z,10.60
2023-04-15T15:56:57.770Z,10.60
2023-04-15T15:59:42.672Z,10.60
2023-04-15T16:02:45.800Z,10.60
2023-04-15T16:29:07.525Z,9.90
2023-04-15T17:55:33.832Z,9.70
2023-04-15T17:58:57.481Z,9.70
2023-04-15T18:01:53.670Z,9.60
2023-04-15T18:06:39.204Z,9.60
2023-04-15T18:09:04.846Z,9.50
2023-04-15T18:11:58.220Z,9.40
2023-04-15T18:14:38.308Z,9.30
2023-04-15T18:17:28.033Z,9.20
2023-04-15T18:20:12.379Z,9.10
2023-04-15T18:22:59.273Z,9.10
2023-04-15T18:45:23.322Z,8.60
2023-04-15T20:07:31.928Z,8.40
2023-04-15T20:10:02.515Z,8.40
2023-04-15T20:12:51.058Z,8.40
2023-04-15T20:15:56.346Z,8.40
2023-04-15T20:19:09.544Z,8.40
2023-04-15T21:23:29.047Z,8.40
2023-04-15T21:26:00.975Z,8.50
2023-04-15T21:28:30.412Z,8.50
2023-04-15T21:30:59.419Z,8.50
2023-04-15T21:33:28.535Z,8.60
2023-04-15T21:35:57.145Z,8.60
2023-04-15T21:38:28.682Z,8.60
2023-04-15T21:40:58.058Z,8.60
2023-04-15T21:43:28.494Z,8.60
2023-04-15T21:46:23.259Z,8.60
2023-04-15T21:48:46.522Z,8.60
2023-04-15T21:51:15.608Z,8.60
2023-04-15T21:53:46.353Z,8.60
2023-04-15T21:56:15.219Z,8.60
2023-04-15T21:58:47.197Z,8.60
2023-04-15T22:01:17.031Z,8.60
2023-04-15T22:03:46.357Z,8.60
2023-04-15T22:06:15.626Z,8.60
2023-04-15T22:08:53.080Z,8.60
2023-04-15T22:11:27.439Z,8.60
2023-04-15T22:13:58.413Z,8.60
2023-04-15T22:16:27.473Z,8.60
2023-04-15T22:18:56.159Z,8.60
2023-04-15T22:21:25.058Z,8.60
2023-04-15T22:24:34.465Z,8.50
2023-04-15T22:26:45.705Z,8.50
2023-04-15T22:29:15.867Z,8.50
2023-04-15T22:31:45.023Z,8.50
2023-04-15T22:34:14.934Z,8.60
2023-04-15T22:36:43.490Z,8.60
2023-04-15T22:39:12.181Z,8.50
2023-04-15T22:41:40.902Z,8.60
2023-04-15T22:44:09.781Z,8.60
2023-04-15T22:46:40.358Z,8.60
2023-04-15T22:49:10.458Z,8.60
2023-04-15T22:51:39.297Z,8.70
2023-04-15T22:54:07.979Z,8.60
2023-04-15T22:56:36.556Z,8.70
2023-04-15T22:59:05.424Z,8.70
2023-04-15T23:01:33.993Z,8.70
2023-04-15T23:04:05.970Z,8.70
2023-04-15T23:06:38.125Z,8.70
2023-04-15T23:09:06.933Z,8.70
2023-04-15T23:11:35.532Z,8.70
2023-04-15T23:14:04.121Z,8.70
2023-04-15T23:16:32.724Z,8.70
2023-04-15T23:19:01.592Z,8.70
2023-04-15T23:21:31.889Z,8.70
2023-04-15T23:24:00.526Z,8.70
2023-04-15T23:26:29.132Z,8.70
2023-04-15T23:28:58.032Z,8.60
2023-04-15T23:31:27.021Z,8.70
2023-04-15T23:33:55.526Z,8.70
2023-04-15T23:36:24.086Z,8.70
2023-04-15T23:38:54.258Z,8.70
2023-04-15T23:41:23.469Z,8.70
2023-04-15T23:43:55.273Z,8.70
2023-04-15T23:46:23.852Z,8.70
2023-04-15T23:48:52.721Z,8.70
2023-04-15T23:51:21.901Z,8.70
2023-04-15T23:53:52.754Z,8.70
2023-04-15T23:56:23.075Z,8.70
2023-04-15T23:58:51.665Z,8.70
